createdAt,value
2022-12-08T00:01:24.066Z,67.81
2022-12-08T00:03:53.267Z,67.66
2022-12-08T00:07:01.593Z,67.62
2022-12-08T00:09:46.369Z,67.61
2022-12-08T00:12:17.478Z,67.58
2022-12-08T00:14:46.618Z,67.79
2022-12-08T00:17:14.851Z,67.69
2022-12-08T00:19:41.719Z,67.68
2022-12-08T00:22:09.671Z,67.91
2022-12-08T00:24:40.852Z,67.87
2022-12-08T00:27:12.479Z,67.77
2022-12-08T00:29:38.925Z,67.54
2022-12-08T00:32:05.867Z,67.59
2022-12-08T00:34:33.019Z,67.43
2022-12-08T00:36:59.800Z,67.32
2022-12-08T00:39:26.088Z,67.29
2022-12-08T00:42:11.011Z,67.23
2022-12-08T00:44:37.311Z,67.17
2022-12-08T00:47:04.281Z,67.01
2022-12-08T00:49:30.611Z,67.21
2022-12-08T00:51:56.948Z,67.47
2022-12-08T00:54:24.003Z,67.41
2022-12-08T00:56:50.508Z,67.41
2022-12-08T00:59:17.152Z,67.39
2022-12-08T01:01:45.790Z,67.59
2022-12-08T01:04:15.486Z,67.81
2022-12-08T01:06:42.409Z,67.89
2022-12-08T01:09:09.172Z,67.93
2022-12-08T01:11:36.364Z,68.06
2022-12-08T01:14:03.173Z,68.05
2022-12-08T01:16:32.845Z,68.70
2022-12-08T01:19:00.011Z,68.50
2022-12-08T01:21:27.426Z,68.62
2022-12-08T01:23:54.536Z,68.57
2022-12-08T01:26:21.036Z,68.64
2022-12-08T01:28:48.121Z,69.00
2022-12-08T01:31:20.128Z,69.03
2022-12-08T01:33:47.406Z,68.67
2022-12-08T01:36:25.494Z,69.48
2022-12-08T01:38:52.530Z,68.86
2022-12-08T01:41:23.105Z,69.08
2022-12-08T01:43:55.678Z,69.15
2022-12-08T01:46:22.590Z,69.06
2022-12-08T01:48:50.458Z,69.12
2022-12-08T01:51:17.579Z,68.96
2022-12-08T01:53:44.046Z,69.23
2022-12-08T01:56:16.798Z,69.12
2022-12-08T01:58:47.916Z,69.29
2022-12-08T02:01:14.368Z,69.39
2022-12-08T02:03:52.844Z,69.65
2022-12-08T02:06:20.077Z,69.40
2022-12-08T02:08:47.285Z,69.50
2022-12-08T02:11:13.963Z,69.83
2022-12-08T02:13:43.045Z,69.69
2022-12-08T02:16:12.138Z,69.82
2022-12-08T02:19:22.556Z,70.14
2022-12-08T02:21:55.521Z,69.62
2022-12-08T02:24:44.385Z,70.06
2022-12-08T02:27:29.395Z,70.26
2022-12-08T02:30:08.063Z,70.08
2022-12-08T02:33:05.349Z,70.23
2022-12-08T02:35:50.345Z,69.70
2022-12-08T02:38:25.790Z,69.61
2022-12-08T02:41:18.938Z,70.05
2022-12-08T02:43:55.215Z,69.58
2022-12-08T02:46:27.529Z,69.26
2022-12-08T02:48:57.001Z,69.22
2022-12-08T02:51:23.478Z,69.28
2022-12-08T02:53:50.231Z,69.31
2022-12-08T02:56:34.550Z,69.84
2022-12-08T02:59:34.345Z,69.87
2022-12-08T03:02:30.650Z,69.83
2022-12-08T03:05:06.452Z,69.59
2022-12-08T03:07:51.644Z,69.68
2022-12-08T03:10:37.003Z,70.07
2022-12-08T03:13:09.743Z,69.29
2022-12-08T03:15:38.673Z,69.47
2022-12-08T03:18:09.360Z,69.64
2022-12-08T03:20:38.175Z,69.66
2022-12-08T03:23:07.976Z,69.63
2022-12-08T03:25:39.303Z,69.86
2022-12-08T03:28:06.110Z,69.69
2022-12-08T03:30:37.722Z,69.85
2022-12-08T03:33:09.568Z,69.74
2022-12-08T03:35:40.109Z,69.98
2022-12-08T03:38:10.739Z,69.99
2022-12-08T03:40:38.081Z,69.69
2022-12-08T03:43:04.521Z,69.82
2022-12-08T03:45:30.920Z,69.76
2022-12-08T03:47:57.934Z,69.88
2022-12-08T03:50:24.532Z,69.81
2022-12-08T03:52:50.932Z,69.89
2022-12-08T03:55:17.496Z,69.95
2022-12-08T03:57:43.992Z,69.95
2022-12-08T04:00:15.033Z,70.30
2022-12-08T04:02:41.440Z,69.97
2022-12-08T04:05:08.302Z,69.92
2022-12-08T04:07:34.609Z,70.06
2022-12-08T04:10:00.947Z,69.92
2022-12-08T04:12:27.270Z,70.03
2022-12-08T04:14:53.579Z,69.95
2022-12-08T04:17:19.858Z,69.98
2022-12-08T04:19:46.187Z,69.87
2022-12-08T04:22:12.522Z,69.93
2022-12-08T04:24:38.847Z,70.19
2022-12-08T04:27:05.156Z,69.85
2022-12-08T04:29:31.523Z,70.00
2022-12-08T04:31:57.973Z,69.96
2022-12-08T04:34:24.451Z,69.88
2022-12-08T04:36:50.791Z,69.95
2022-12-08T04:39:17.115Z,69.90
2022-12-08T04:41:43.476Z,69.88
2022-12-08T04:44:09.788Z,69.52
2022-12-08T04:46:51.259Z,70.01
2022-12-08T04:49:17.661Z,69.94
2022-12-08T04:51:44.003Z,69.88
2022-12-08T04:54:10.337Z,69.89
2022-12-08T04:56:37.000Z,70.07
2022-12-08T04:59:03.584Z,70.20
2022-12-08T05:01:30.072Z,69.92
2022-12-08T05:03:56.803Z,70.14
2022-12-08T05:06:24.298Z,69.72
2022-12-08T05:08:50.606Z,69.92
2022-12-08T05:11:16.948Z,69.91
2022-12-08T05:13:43.283Z,69.95
2022-12-08T05:16:12.837Z,70.05
2022-12-08T05:18:40.788Z,69.88
2022-12-08T05:21:08.351Z,69.76
2022-12-08T05:23:34.777Z,69.95
2022-12-08T05:26:01.472Z,69.91
2022-12-08T05:28:44.042Z,70.01
2022-12-08T05:31:15.527Z,69.99
2022-12-08T05:33:42.979Z,69.82
2022-12-08T05:36:11.639Z,69.89
2022-12-08T05:38:38.037Z,69.83
2022-12-08T05:41:06.824Z,69.91
2022-12-08T05:43:33.469Z,69.87
2022-12-08T05:45:59.840Z,70.01
2022-12-08T05:48:26.226Z,69.79
2022-12-08T05:50:52.643Z,69.83
2022-12-08T05:53:20.257Z,69.66
2022-12-08T05:55:47.658Z,69.99
2022-12-08T05:58:16.688Z,69.91
2022-12-08T06:00:43.872Z,69.82
2022-12-08T06:03:15.121Z,69.88
2022-12-08T06:05:42.917Z,70.15
2022-12-08T06:08:10.061Z,69.75
2022-12-08T06:10:38.755Z,69.94
2022-12-08T06:33:02.108Z,69.23
2022-12-08T06:35:28.612Z,69.32
2022-12-08T06:37:55.300Z,69.51
2022-12-08T06:40:21.882Z,69.66
2022-12-08T06:42:48.369Z,69.55
2022-12-08T06:48:06.688Z,69.28
2022-12-08T06:50:34.887Z,69.60
2022-12-08T06:53:05.541Z,69.49
2022-12-08T06:58:20.186Z,69.49
2022-12-08T07:00:46.865Z,69.58
2022-12-08T07:03:14.558Z,69.36
2022-12-08T07:05:41.154Z,69.72
2022-12-08T07:08:09.080Z,69.80
2022-12-08T07:10:35.598Z,69.78
2022-12-08T07:13:02.026Z,69.61
2022-12-08T07:15:28.334Z,69.56
2022-12-08T07:17:59.541Z,69.61
2022-12-08T07:20:26.458Z,69.45
2022-12-08T07:22:53.630Z,69.60
2022-12-08T07:25:20.277Z,69.74
2022-12-08T07:27:46.942Z,69.71
2022-12-08T07:30:14.853Z,69.77
2022-12-08T07:32:41.623Z,69.53
2022-12-08T07:35:08.841Z,69.59
2022-12-08T07:37:37.427Z,69.58
2022-12-08T07:40:05.912Z,69.51
2022-12-08T07:42:32.650Z,69.36
2022-12-08T07:44:59.507Z,69.33
2022-12-08T07:47:25.947Z,69.29
2022-12-08T07:49:52.498Z,69.29
2022-12-08T07:52:18.832Z,69.19
2022-12-08T07:54:45.210Z,69.43
2022-12-08T07:57:11.607Z,69.50
2022-12-08T07:59:37.908Z,69.21
2022-12-08T08:02:22.715Z,69.38
2022-12-08T08:04:51.419Z,69.48
2022-12-08T08:07:17.898Z,69.42
2022-12-08T08:09:45.521Z,69.75
2022-12-08T08:12:30.313Z,69.50
2022-12-08T08:14:58.224Z,69.70
2022-12-08T08:17:24.608Z,69.51
2022-12-08T08:19:51.070Z,69.68
2022-12-08T08:22:17.404Z,69.34
2022-12-08T08:24:45.233Z,69.34
2022-12-08T08:27:12.078Z,69.38
2022-12-08T08:29:38.409Z,69.20
2022-12-08T08:32:05.221Z,69.48
2022-12-08T08:34:31.753Z,69.44
2022-12-08T08:36:58.132Z,69.20
2022-12-08T08:39:24.458Z,69.43
2022-12-08T08:41:50.890Z,69.54
2022-12-08T08:44:17.187Z,69.50
2022-12-08T08:46:43.544Z,69.63
2022-12-08T08:49:09.967Z,69.35
2022-12-08T08:51:36.349Z,69.16
2022-12-08T08:54:02.871Z,69.35
2022-12-08T08:56:29.174Z,69.24
2022-12-08T08:58:55.558Z,69.27
2022-12-08T09:01:27.731Z,69.45
2022-12-08T09:03:55.193Z,69.25
2022-12-08T09:06:23.020Z,69.13
2022-12-08T09:08:49.943Z,69.04
2022-12-08T09:11:18.414Z,69.08
2022-12-08T09:13:47.584Z,68.99
2022-12-08T09:16:13.933Z,68.77
2022-12-08T09:18:40.356Z,68.95
2022-12-08T09:21:14.925Z,69.17
2022-12-08T09:23:41.241Z,68.83
2022-12-08T09:26:09.608Z,68.95
2022-12-08T09:28:36.042Z,68.99
2022-12-08T09:31:02.690Z,69.04
2022-12-08T09:33:29.142Z,68.97
2022-12-08T09:35:55.662Z,69.00
2022-12-08T09:38:22.005Z,68.89
2022-12-08T09:40:54.673Z,68.92
2022-12-08T09:43:42.701Z,69.10
2022-12-08T09:46:11.195Z,69.00
2022-12-08T09:48:41.957Z,68.77
2022-12-08T09:51:10.007Z,68.88
2022-12-08T09:53:45.316Z,68.63
2022-12-08T09:56:14.771Z,68.91
2022-12-08T09:58:48.161Z,68.91
2022-12-08T10:01:14.925Z,68.61
2022-12-08T10:03:42.325Z,69.05
2022-12-08T10:06:20.521Z,68.83
2022-12-08T10:09:05.572Z,69.02
2022-12-08T10:12:10.379Z,68.74
2022-12-08T10:14:42.943Z,68.46
2022-12-08T10:17:23.763Z,68.77
2022-12-08T10:19:58.793Z,68.68
2022-12-08T10:22:31.560Z,68.42
2022-12-08T10:25:01.341Z,68.32
2022-12-08T10:27:27.893Z,68.38
2022-12-08T10:29:54.267Z,68.36
2022-12-08T10:32:24.201Z,68.25
2022-12-08T10:35:09.132Z,67.88
2022-12-08T10:37:36.185Z,68.26
2022-12-08T10:40:17.073Z,67.96
2022-12-08T10:42:48.419Z,68.05
2022-12-08T10:45:26.763Z,67.92
2022-12-08T10:47:57.885Z,68.27
2022-12-08T10:50:45.809Z,68.21
2022-12-08T10:53:21.326Z,67.93
2022-12-08T10:56:08.101Z,67.99
2022-12-08T10:58:35.758Z,68.05
2022-12-08T11:01:12.052Z,67.68
2022-12-08T11:03:53.989Z,67.91
2022-12-08T11:06:29.057Z,67.90
2022-12-08T11:09:01.491Z,68.31
2022-12-08T11:11:48.255Z,68.29
2022-12-08T11:14:29.900Z,68.13
2022-12-08T11:17:05.262Z,67.84
2022-12-08T11:19:31.575Z,67.83
2022-12-08T11:21:57.874Z,68.08
2022-12-08T11:24:28.623Z,67.99
2022-12-08T11:27:06.292Z,67.57
2022-12-08T11:29:35.166Z,67.55
2022-12-08T11:32:11.785Z,67.09
2022-12-08T11:34:55.240Z,67.30
2022-12-08T11:37:39.344Z,67.63
2022-12-08T11:40:20.007Z,67.05
2022-12-08T11:43:39.294Z,67.18
2022-12-08T11:46:34.431Z,67.55
2022-12-08T11:49:09.392Z,67.77
2022-12-08T11:51:46.344Z,67.52
2022-12-08T11:54:26.619Z,67.66
2022-12-08T11:56:55.873Z,67.73
2022-12-08T11:59:49.510Z,67.86
2022-12-08T12:02:20.027Z,67.64
2022-12-08T12:04:49.327Z,68.10
2022-12-08T12:07:56.866Z,67.96
2022-12-08T12:10:50.189Z,67.89
2022-12-08T12:14:00.548Z,67.80
2022-12-08T12:16:33.472Z,67.60
2022-12-08T12:19:01.712Z,67.80
2022-12-08T12:21:33.267Z,67.73
2022-12-08T12:24:07.730Z,67.36
2022-12-08T12:26:49.785Z,67.14
2022-12-08T12:29:20.915Z,67.29
2022-12-08T12:31:53.272Z,67.08
2022-12-08T12:34:25.895Z,66.82
2022-12-08T12:36:58.982Z,67.08
2022-12-08T12:39:29.948Z,67.06
2022-12-08T12:42:01.620Z,66.76
2022-12-08T12:44:27.868Z,66.98
2022-12-08T12:46:58.104Z,67.11
2022-12-08T12:49:39.959Z,66.66
2022-12-08T12:52:15.449Z,66.18
2022-12-08T12:55:05.716Z,66.57
2022-12-08T12:57:49.880Z,66.49
2022-12-08T13:00:22.441Z,66.59
2022-12-08T13:02:51.866Z,66.65
2022-12-08T13:05:29.621Z,66.50
2022-12-08T13:08:19.308Z,66.32
2022-12-08T13:11:04.760Z,66.21
2022-12-08T13:13:55.011Z,66.11
2022-12-08T13:16:26.954Z,66.22
2022-12-08T13:18:58.844Z,66.00
2022-12-08T13:21:34.638Z,66.04
2022-12-08T13:24:10.201Z,66.28
2022-12-08T13:26:51.278Z,66.46
2022-12-08T13:29:24.335Z,66.36
2022-12-08T13:31:54.018Z,66.67
2022-12-08T13:34:50.387Z,65.86
2022-12-08T13:37:54.456Z,66.01
2022-12-08T13:40:25.931Z,66.25
2022-12-08T13:43:25.370Z,66.11
2022-12-08T13:46:52.846Z,66.40
2022-12-08T13:57:32.901Z,66.52
2022-12-08T14:00:07.738Z,66.73
2022-12-08T14:02:47.042Z,66.80
2022-12-08T14:05:40.480Z,66.63
2022-12-08T14:08:50.359Z,66.80
2022-12-08T14:11:07.372Z,66.54
2022-12-08T14:13:41.043Z,66.57
2022-12-08T14:16:37.510Z,66.73
2022-12-08T14:19:21.834Z,66.51
2022-12-08T14:22:16.480Z,66.41
2022-12-08T14:24:51.647Z,66.36
2022-12-08T14:27:26.773Z,66.54
2022-12-08T14:29:56.870Z,66.62
2022-12-08T14:32:37.648Z,66.61
2022-12-08T14:35:07.394Z,66.64
2022-12-08T14:37:46.059Z,66.42
2022-12-08T14:40:22.773Z,66.53
2022-12-08T14:43:08.542Z,66.45
2022-12-08T14:45:41.267Z,66.53
2022-12-08T14:48:47.534Z,66.61
2022-12-08T14:51:17.032Z,66.35
2022-12-08T14:53:53.464Z,65.94
2022-12-08T14:56:46.345Z,66.30
2022-12-08T14:59:32.493Z,66.24
2022-12-08T15:02:11.249Z,66.31
2022-12-08T15:04:40.807Z,66.54
2022-12-08T15:07:10.454Z,66.51
2022-12-08T15:09:38.368Z,66.29
2022-12-08T15:12:14.117Z,66.64
2022-12-08T15:14:54.110Z,66.60
2022-12-08T15:17:45.667Z,66.61
2022-12-08T15:20:35.093Z,66.60
2022-12-08T15:23:02.658Z,66.24
2022-12-08T15:25:29.203Z,66.20
2022-12-08T15:27:58.216Z,66.01
2022-12-08T15:30:29.657Z,66.17
2022-12-08T15:32:56.230Z,66.05
2022-12-08T15:35:23.981Z,66.02
2022-12-08T15:37:50.389Z,66.14
2022-12-08T15:40:20.183Z,66.17
2022-12-08T15:42:46.839Z,66.41
2022-12-08T15:45:19.472Z,66.60
2022-12-08T15:47:47.002Z,66.80
2022-12-08T15:50:19.899Z,66.60
2022-12-08T15:52:47.195Z,66.70
2022-12-08T15:55:15.866Z,66.42
2022-12-08T15:58:51.323Z,66.63
2022-12-08T16:00:54.482Z,66.46
2022-12-08T16:04:14.284Z,66.35
2022-12-08T16:07:04.780Z,66.32
2022-12-08T16:09:13.805Z,66.31
2022-12-08T16:12:09.084Z,66.23
2022-12-08T16:17:24.751Z,66.17
2022-12-08T16:19:53.944Z,66.52
2022-12-08T16:22:54.436Z,66.30
2022-12-08T16:25:26.659Z,66.25
2022-12-08T16:28:05.441Z,66.43
2022-12-08T16:30:39.333Z,66.41
2022-12-08T16:33:11.233Z,66.49
2022-12-08T16:35:37.844Z,66.17
2022-12-08T16:38:04.801Z,66.42
2022-12-08T16:40:31.345Z,66.61
2022-12-08T16:43:01.298Z,66.37
2022-12-08T16:45:33.228Z,66.63
2022-12-08T16:48:01.108Z,66.77
2022-12-08T16:50:37.780Z,67.33
2022-12-08T16:53:09.124Z,67.52
2022-12-08T16:55:35.608Z,67.49
2022-12-08T16:58:03.471Z,67.70
2022-12-08T17:00:38.623Z,67.81
2022-12-08T17:03:07.974Z,67.70
2022-12-08T17:05:40.016Z,67.43
2022-12-08T17:08:07.350Z,67.75
2022-12-08T17:10:41.890Z,67.96
2022-12-08T17:13:08.629Z,67.56
2022-12-08T17:15:36.218Z,67.76
2022-12-08T17:18:02.951Z,67.77
2022-12-08T17:20:33.938Z,67.82
2022-12-08T17:23:00.357Z,67.68
2022-12-08T17:25:26.979Z,67.90
2022-12-08T17:27:53.774Z,67.61
2022-12-08T17:30:23.742Z,67.64
2022-12-08T17:32:52.640Z,67.71
2022-12-08T17:35:27.615Z,67.83
2022-12-08T17:37:53.982Z,67.48
2022-12-08T17:40:28.563Z,67.70
2022-12-08T17:42:55.048Z,67.50
2022-12-08T17:45:21.519Z,67.23
2022-12-08T17:47:48.977Z,67.18
2022-12-08T17:50:15.463Z,67.19
2022-12-08T17:52:50.201Z,67.36
2022-12-08T17:55:16.971Z,67.26
2022-12-08T17:57:43.388Z,66.99
2022-12-08T18:00:13.643Z,66.95
2022-12-08T18:03:01.205Z,66.95
2022-12-08T18:05:27.848Z,66.88
2022-12-08T18:07:54.405Z,66.58
2022-12-08T18:10:20.941Z,66.66
2022-12-08T18:12:48.565Z,66.40
2022-12-08T18:15:17.421Z,66.40
2022-12-08T18:17:43.945Z,66.64
2022-12-08T18:20:10.901Z,66.38
2022-12-08T18:22:39.637Z,66.72
2022-12-08T18:25:06.964Z,66.54
2022-12-08T18:27:37.301Z,66.47
2022-12-08T18:30:07.872Z,66.91
2022-12-08T18:32:35.373Z,66.47
2022-12-08T18:35:01.943Z,66.54
2022-12-08T18:37:29.447Z,66.67
2022-12-08T18:39:55.938Z,66.55
2022-12-08T18:42:25.731Z,66.93
2022-12-08T18:44:56.221Z,66.92
2022-12-08T18:49:53.843Z,66.80
2022-12-08T18:52:26.829Z,66.64
2022-12-08T18:55:06.477Z,66.61
2022-12-08T18:57:33.980Z,66.51
2022-12-08T19:00:02.320Z,66.42
2022-12-08T19:02:28.843Z,66.42
2022-12-08T19:04:55.941Z,66.49
2022-12-08T19:07:22.323Z,66.50
2022-12-08T19:10:36.669Z,66.53
2022-12-08T19:13:30.212Z,66.16
2022-12-08T19:15:56.739Z,66.10
2022-12-08T19:18:35.261Z,66.08
2022-12-08T19:21:01.585Z,65.80
2022-12-08T19:26:33.584Z,65.80
2022-12-08T19:29:00.076Z,66.05
2022-12-08T19:31:26.964Z,66.35
2022-12-08T19:33:53.886Z,66.30
2022-12-08T19:36:23.273Z,66.48
2022-12-08T19:39:08.345Z,66.54
2022-12-08T19:41:55.270Z,66.51
2022-12-08T19:47:15.188Z,66.41
2022-12-08T19:49:41.591Z,66.40
2022-12-08T19:52:08.349Z,66.29
2022-12-08T19:54:35.059Z,66.56
2022-12-08T19:57:02.198Z,66.17
2022-12-08T19:59:30.051Z,65.88
2022-12-08T20:01:57.951Z,66.04
2022-12-08T20:04:26.073Z,65.98
2022-12-08T20:06:53.889Z,65.98
2022-12-08T20:09:20.823Z,65.76
2022-12-08T20:11:47.252Z,65.58
2022-12-08T20:14:13.689Z,65.87
2022-12-08T20:16:41.585Z,65.79
2022-12-08T20:19:08.145Z,65.63
2022-12-08T20:21:34.464Z,65.72
2022-12-08T20:24:00.810Z,65.68
2022-12-08T20:26:27.177Z,65.65
2022-12-08T20:28:53.575Z,65.69
2022-12-08T20:31:22.776Z,65.58
2022-12-08T20:33:49.337Z,65.40
2022-12-08T20:36:20.965Z,65.59
2022-12-08T20:38:49.049Z,65.49
2022-12-08T20:41:16.156Z,65.70
2022-12-08T20:43:46.840Z,65.44
2022-12-08T20:46:16.062Z,65.56
2022-12-08T20:48:43.549Z,65.23
2022-12-08T20:51:14.282Z,65.65
2022-12-08T20:53:40.758Z,65.42
2022-12-08T20:56:07.413Z,65.74
2022-12-08T20:58:33.861Z,65.74
2022-12-08T21:01:00.262Z,66.05
2022-12-08T21:03:26.862Z,66.46
2022-12-08T21:05:53.289Z,66.26
2022-12-08T21:08:20.413Z,66.46
2022-12-08T21:10:53.785Z,67.29
2022-12-08T21:13:20.307Z,67.42
2022-12-08T21:15:47.279Z,67.19
2022-12-08T21:18:15.919Z,67.28
2022-12-08T21:20:42.800Z,67.54
2022-12-08T21:23:09.514Z,67.78
2022-12-08T21:25:40.372Z,67.60
2022-12-08T21:28:06.789Z,67.41
2022-12-08T21:30:33.377Z,67.57
2022-12-08T21:32:59.818Z,67.46
2022-12-08T21:35:26.737Z,67.54
2022-12-08T21:37:53.270Z,67.38
2022-12-08T21:40:19.579Z,67.31
2022-12-08T21:42:46.221Z,67.17
2022-12-08T21:45:18.149Z,67.29
2022-12-08T21:47:45.807Z,67.05
2022-12-08T21:50:13.318Z,67.18
2022-12-08T21:52:41.773Z,67.37
2022-12-08T21:55:09.408Z,67.38
2022-12-08T21:57:35.899Z,67.44
2022-12-08T22:00:02.364Z,67.45
2022-12-08T22:02:29.014Z,67.36
2022-12-08T22:04:55.702Z,67.44
2022-12-08T22:07:22.447Z,67.56
2022-12-08T22:09:49.220Z,67.33
2022-12-08T22:12:16.803Z,66.94
2022-12-08T22:14:44.101Z,66.72
2022-12-08T22:17:10.599Z,66.50
2022-12-08T22:19:37.489Z,66.43
2022-12-08T22:22:03.888Z,66.77
2022-12-08T22:24:30.983Z,66.83
2022-12-08T22:27:00.406Z,67.02
2022-12-08T22:29:26.724Z,67.21
2022-12-08T22:31:53.102Z,67.32
2022-12-08T22:34:19.581Z,67.18
2022-12-08T22:36:46.052Z,67.02
2022-12-08T22:39:12.689Z,67.31
2022-12-08T22:41:39.096Z,67.65
2022-12-08T22:44:06.515Z,67.48
2022-12-08T22:46:33.559Z,67.77
2022-12-08T22:49:00.524Z,67.55
2022-12-08T22:51:26.893Z,67.65
2022-12-08T22:53:53.298Z,67.80
2022-12-08T22:56:19.764Z,67.61
2022-12-08T22:58:46.880Z,67.82
2022-12-08T23:01:28.958Z,67.82
2022-12-08T23:03:56.129Z,67.65
2022-12-08T23:06:24.039Z,67.63
2022-12-08T23:08:51.053Z,67.83
2022-12-08T23:11:18.680Z,67.69
2022-12-08T23:13:45.414Z,67.49
2022-12-08T23:16:13.156Z,67.65
2022-12-08T23:18:45.970Z,67.50
2022-12-08T23:21:15.510Z,67.56
2022-12-08T23:23:42.439Z,67.47
2022-12-08T23:26:23.769Z,67.71
2022-12-08T23:28:50.620Z,67.72
2022-12-08T23:31:17.788Z,67.53
2022-12-08T23:33:44.789Z,67.38
2022-12-08T23:36:13.391Z,67.67
2022-12-08T23:38:39.849Z,67.46
2022-12-08T23:41:07.763Z,67.51
2022-12-08T23:43:35.217Z,67.45
2022-12-08T23:46:01.734Z,67.46
2022-12-08T23:48:28.771Z,67.46
2022-12-08T23:50:56.914Z,67.29
2022-12-08T23:53:23.462Z,67.26
2022-12-08T23:55:49.827Z,67.23
2022-12-08T23:58:16.193Z,67.40
